Terminal Aerodrome Forecast
Issued by NWS

Home | Current Version | Previous Version | Text Only | Print | Product List | Glossary On
Versions: 1 2 3 4 5 6 7 8 9 10 11 12 13
000
FTUS45 KTFX 201853 AAA
TAFGTF
TAF AMD
KGTF 201853Z 2019/2118 28009KT P6SM FEW090 SCT180
     FM210300 VRB06KT P6SM SCT120 BKN150
     FM211400 VRB06KT P6SM FEW200=

USA.gov is the U.S. government's official web portal to all federal, state and local government web resources and services.